sensor_id;sensor_type;location;lat;lon;timestamp;P1;durP1;ratioP1;P2;durP2;ratioP2
24483;SDS011;12643;51.620;7.548;2023-12-14T00:00:42;9.57;;;7.60;;
24483;SDS011;12643;51.620;7.548;2023-12-14T00:03:10;9.15;;;7.63;;
24483;SDS011;12643;51.620;7.548;2023-12-14T00:05:38;7.25;;;6.53;;
24483;SDS011;12643;51.620;7.548;2023-12-14T00:08:09;8.15;;;7.07;;
24483;SDS011;12643;51.620;7.548;2023-12-14T00:10:37;9.25;;;7.30;;
24483;SDS011;12643;51.620;7.548;2023-12-14T00:13:06;8.77;;;7.47;;
24483;SDS011;12643;51.620;7.548;2023-12-14T00:15:34;10.77;;;7.47;;
24483;SDS011;12643;51.620;7.548;2023-12-14T00:18:07;10.70;;;8.07;;
24483;SDS011;12643;51.620;7.548;2023-12-14T00:20:34;9.93;;;7.65;;
24483;SDS011;12643;51.620;7.548;2023-12-14T00:23:02;9.63;;;7.90;;
24483;SDS011;12643;51.620;7.548;2023-12-14T00:25:32;12.00;;;8.48;;
24483;SDS011;12643;51.620;7.548;2023-12-14T00:28:00;11.95;;;8.65;;
24483;SDS011;12643;51.620;7.548;2023-12-14T00:30:27;12.32;;;9.55;;
24483;SDS011;12643;51.620;7.548;2023-12-14T00:32:55;12.38;;;9.48;;
24483;SDS011;12643;51.620;7.548;2023-12-14T00:35:23;12.98;;;9.98;;
24483;SDS011;12643;51.620;7.548;2023-12-14T00:37:51;14.25;;;10.32;;
24483;SDS011;12643;51.620;7.548;2023-12-14T00:40:19;15.48;;;11.40;;
24483;SDS011;12643;51.620;7.548;2023-12-14T00:42:48;20.35;;;14.07;;
24483;SDS011;12643;51.620;7.548;2023-12-14T00:45:16;23.00;;;16.95;;
24483;SDS011;12643;51.620;7.548;2023-12-14T00:47:44;27.00;;;18.05;;
24483;SDS011;12643;51.620;7.548;2023-12-14T00:50:11;28.45;;;18.73;;
24483;SDS011;12643;51.620;7.548;2023-12-14T00:52:39;29.42;;;18.75;;
24483;SDS011;12643;51.620;7.548;2023-12-14T00:55:07;28.58;;;19.98;;
24483;SDS011;12643;51.620;7.548;2023-12-14T00:57:35;34.45;;;21.75;;
24483;SDS011;12643;51.620;7.548;2023-12-14T01:00:05;30.70;;;20.98;;
24483;SDS011;12643;51.620;7.548;2023-12-14T01:02:36;33.58;;;22.25;;
24483;SDS011;12643;51.620;7.548;2023-12-14T01:05:04;36.25;;;23.83;;
24483;SDS011;12643;51.620;7.548;2023-12-14T01:07:32;35.55;;;23.83;;
24483;SDS011;12643;51.620;7.548;2023-12-14T01:10:00;38.53;;;23.80;;
24483;SDS011;12643;51.620;7.548;2023-12-14T01:12:28;40.13;;;24.50;;
24483;SDS011;12643;51.620;7.548;2023-12-14T01:14:56;37.40;;;24.40;;
24483;SDS011;12643;51.620;7.548;2023-12-14T01:17:25;34.65;;;22.80;;
24483;SDS011;12643;51.620;7.548;2023-12-14T01:19:54;33.40;;;20.88;;
24483;SDS011;12643;51.620;7.548;2023-12-14T01:22:21;30.65;;;20.35;;
24483;SDS011;12643;51.620;7.548;2023-12-14T01:24:48;33.03;;;20.10;;
24483;SDS011;12643;51.620;7.548;2023-12-14T01:27:16;30.20;;;19.42;;
24483;SDS011;12643;51.620;7.548;2023-12-14T01:29:44;30.10;;;20.23;;
24483;SDS011;12643;51.620;7.548;2023-12-14T01:32:12;30.63;;;19.73;;
24483;SDS011;12643;51.620;7.548;2023-12-14T01:34:41;30.70;;;20.20;;
24483;SDS011;12643;51.620;7.548;2023-12-14T01:37:14;32.80;;;20.60;;
24483;SDS011;12643;51.620;7.548;2023-12-14T01:39:42;32.72;;;19.75;;
24483;SDS011;12643;51.620;7.548;2023-12-14T01:42:10;29.27;;;19.73;;
24483;SDS011;12643;51.620;7.548;2023-12-14T01:44:41;30.13;;;19.90;;
24483;SDS011;12643;51.620;7.548;2023-12-14T01:47:09;31.15;;;20.02;;
24483;SDS011;12643;51.620;7.548;2023-12-14T01:49:37;32.17;;;20.38;;
24483;SDS011;12643;51.620;7.548;2023-12-14T01:52:10;33.67;;;21.80;;
24483;SDS011;12643;51.620;7.548;2023-12-14T01:54:39;33.35;;;21.40;;
24483;SDS011;12643;51.620;7.548;2023-12-14T01:57:07;32.80;;;21.90;;
24483;SDS011;12643;51.620;7.548;2023-12-14T01:59:35;30.98;;;22.25;;
24483;SDS011;12643;51.620;7.548;2023-12-14T02:02:03;31.42;;;21.67;;
24483;SDS011;12643;51.620;7.548;2023-12-14T02:04:33;32.40;;;21.27;;
24483;SDS011;12643;51.620;7.548;2023-12-14T02:07:05;28.98;;;19.10;;
24483;SDS011;12643;51.620;7.548;2023-12-14T02:09:33;28.05;;;19.08;;
24483;SDS011;12643;51.620;7.548;2023-12-14T02:12:00;28.23;;;19.25;;
24483;SDS011;12643;51.620;7.548;2023-12-14T02:14:29;29.23;;;19.67;;
24483;SDS011;12643;51.620;7.548;2023-12-14T02:16:58;29.25;;;19.67;;
24483;SDS011;12643;51.620;7.548;2023-12-14T02:19:29;31.83;;;19.98;;
24483;SDS011;12643;51.620;7.548;2023-12-14T02:21:57;29.00;;;17.83;;
24483;SDS011;12643;51.620;7.548;2023-12-14T02:24:26;30.73;;;19.10;;
24483;SDS011;12643;51.620;7.548;2023-12-14T02:26:57;30.98;;;19.25;;
24483;SDS011;12643;51.620;7.548;2023-12-14T02:29:26;34.17;;;19.92;;
24483;SDS011;12643;51.620;7.548;2023-12-14T02:31:58;34.50;;;19.10;;
24483;SDS011;12643;51.620;7.548;2023-12-14T02:34:28;26.73;;;17.27;;
24483;SDS011;12643;51.620;7.548;2023-12-14T02:36:58;25.58;;;16.27;;
24483;SDS011;12643;51.620;7.548;2023-12-14T02:39:29;27.50;;;15.50;;
24483;SDS011;12643;51.620;7.548;2023-12-14T02:41:59;25.98;;;15.93;;
24483;SDS011;12643;51.620;7.548;2023-12-14T02:44:27;25.60;;;15.02;;
24483;SDS011;12643;51.620;7.548;2023-12-14T02:46:56;27.50;;;15.65;;
24483;SDS011;12643;51.620;7.548;2023-12-14T02:49:24;28.02;;;15.43;;
24483;SDS011;12643;51.620;7.548;2023-12-14T02:51:52;23.90;;;16.10;;
24483;SDS011;12643;51.620;7.548;2023-12-14T02:54:21;25.70;;;15.65;;
24483;SDS011;12643;51.620;7.548;2023-12-14T02:56:50;27.00;;;16.27;;
24483;SDS011;12643;51.620;7.548;2023-12-14T02:59:19;24.13;;;16.33;;
24483;SDS011;12643;51.620;7.548;2023-12-14T03:01:47;27.50;;;15.43;;
24483;SDS011;12643;51.620;7.548;2023-12-14T03:04:19;26.00;;;17.00;;
24483;SDS011;12643;51.620;7.548;2023-12-14T03:06:46;26.27;;;16.35;;
24483;SDS011;12643;51.620;7.548;2023-12-14T03:09:14;27.65;;;16.48;;
24483;SDS011;12643;51.620;7.548;2023-12-14T03:11:44;26.55;;;16.27;;
24483;SDS011;12643;51.620;7.548;2023-12-14T03:14:13;27.77;;;14.88;;
24483;SDS011;12643;51.620;7.548;2023-12-14T03:16:42;22.35;;;14.02;;
24483;SDS011;12643;51.620;7.548;2023-12-14T03:19:09;24.15;;;14.60;;
24483;SDS011;12643;51.620;7.548;2023-12-14T03:21:44;24.63;;;16.00;;
24483;SDS011;12643;51.620;7.548;2023-12-14T03:24:14;22.35;;;14.77;;
24483;SDS011;12643;51.620;7.548;2023-12-14T03:26:42;25.23;;;14.10;;
24483;SDS011;12643;51.620;7.548;2023-12-14T03:29:11;26.88;;;14.88;;
24483;SDS011;12643;51.620;7.548;2023-12-14T03:31:47;26.77;;;14.73;;
24483;SDS011;12643;51.620;7.548;2023-12-14T03:34:17;23.67;;;14.65;;
24483;SDS011;12643;51.620;7.548;2023-12-14T03:36:47;24.80;;;14.55;;
24483;SDS011;12643;51.620;7.548;2023-12-14T03:39:15;24.88;;;14.40;;
24483;SDS011;12643;51.620;7.548;2023-12-14T03:41:43;26.00;;;14.65;;
24483;SDS011;12643;51.620;7.548;2023-12-14T03:44:13;23.27;;;14.13;;
24483;SDS011;12643;51.620;7.548;2023-12-14T03:46:43;21.95;;;13.77;;
24483;SDS011;12643;51.620;7.548;2023-12-14T03:49:11;20.70;;;13.77;;
24483;SDS011;12643;51.620;7.548;2023-12-14T03:51:40;23.30;;;14.02;;
24483;SDS011;12643;51.620;7.548;2023-12-14T03:54:07;22.77;;;14.05;;
24483;SDS011;12643;51.620;7.548;2023-12-14T03:56:36;24.42;;;14.07;;
24483;SDS011;12643;51.620;7.548;2023-12-14T03:59:04;22.88;;;13.98;;
24483;SDS011;12643;51.620;7.548;2023-12-14T04:01:33;24.58;;;14.75;;
24483;SDS011;12643;51.620;7.548;2023-12-14T04:04:05;23.45;;;14.40;;
24483;SDS011;12643;51.620;7.548;2023-12-14T04:06:34;24.45;;;14.02;;
24483;SDS011;12643;51.620;7.548;2023-12-14T04:09:01;25.25;;;14.55;;
24483;SDS011;12643;51.620;7.548;2023-12-14T04:11:29;24.15;;;14.25;;
24483;SDS011;12643;51.620;7.548;2023-12-14T04:13:56;26.10;;;14.27;;
24483;SDS011;12643;51.620;7.548;2023-12-14T04:16:25;22.77;;;13.63;;
24483;SDS011;12643;51.620;7.548;2023-12-14T04:18:53;20.77;;;12.40;;
24483;SDS011;12643;51.620;7.548;2023-12-14T04:21:23;21.88;;;13.57;;
24483;SDS011;12643;51.620;7.548;2023-12-14T04:23:51;23.67;;;13.90;;
24483;SDS011;12643;51.620;7.548;2023-12-14T04:26:19;19.90;;;12.63;;
24483;SDS011;12643;51.620;7.548;2023-12-14T04:28:47;22.75;;;13.60;;
24483;SDS011;12643;51.620;7.548;2023-12-14T04:31:19;19.90;;;13.35;;
24483;SDS011;12643;51.620;7.548;2023-12-14T04:33:47;21.13;;;12.75;;
24483;SDS011;12643;51.620;7.548;2023-12-14T04:36:15;19.95;;;12.50;;
24483;SDS011;12643;51.620;7.548;2023-12-14T04:38:45;21.90;;;12.43;;
24483;SDS011;12643;51.620;7.548;2023-12-14T04:41:13;22.73;;;12.82;;
24483;SDS011;12643;51.620;7.548;2023-12-14T04:43:41;19.55;;;12.18;;
24483;SDS011;12643;51.620;7.548;2023-12-14T04:48:39;21.02;;;12.77;;
24483;SDS011;12643;51.620;7.548;2023-12-14T04:51:11;19.88;;;13.38;;
24483;SDS011;12643;51.620;7.548;2023-12-14T04:53:39;16.70;;;10.83;;
24483;SDS011;12643;51.620;7.548;2023-12-14T04:56:11;20.15;;;11.75;;
24483;SDS011;12643;51.620;7.548;2023-12-14T04:58:39;21.48;;;11.57;;
24483;SDS011;12643;51.620;7.548;2023-12-14T05:01:07;17.10;;;11.70;;
24483;SDS011;12643;51.620;7.548;2023-12-14T05:03:35;18.58;;;11.80;;
24483;SDS011;12643;51.620;7.548;2023-12-14T05:06:03;16.48;;;12.25;;
24483;SDS011;12643;51.620;7.548;2023-12-14T05:08:34;18.00;;;11.52;;
24483;SDS011;12643;51.620;7.548;2023-12-14T05:11:01;19.73;;;12.05;;
24483;SDS011;12643;51.620;7.548;2023-12-14T05:13:31;20.33;;;13.23;;
24483;SDS011;12643;51.620;7.548;2023-12-14T05:15:58;18.77;;;11.65;;
24483;SDS011;12643;51.620;7.548;2023-12-14T05:18:27;18.17;;;11.77;;
24483;SDS011;12643;51.620;7.548;2023-12-14T05:20:55;17.05;;;11.65;;
24483;SDS011;12643;51.620;7.548;2023-12-14T05:23:23;18.85;;;11.82;;
24483;SDS011;12643;51.620;7.548;2023-12-14T05:25:51;19.63;;;12.75;;
24483;SDS011;12643;51.620;7.548;2023-12-14T05:28:19;18.42;;;12.30;;
24483;SDS011;12643;51.620;7.548;2023-12-14T05:30:52;20.20;;;12.75;;
24483;SDS011;12643;51.620;7.548;2023-12-14T05:33:19;21.00;;;12.80;;
24483;SDS011;12643;51.620;7.548;2023-12-14T05:35:49;17.95;;;12.63;;
24483;SDS011;12643;51.620;7.548;2023-12-14T05:38:17;21.55;;;13.63;;
24483;SDS011;12643;51.620;7.548;2023-12-14T05:40:46;19.50;;;13.73;;
24483;SDS011;12643;51.620;7.548;2023-12-14T05:43:14;18.90;;;13.02;;
24483;SDS011;12643;51.620;7.548;2023-12-14T05:45:42;22.02;;;13.82;;
24483;SDS011;12643;51.620;7.548;2023-12-14T05:48:11;19.90;;;12.95;;
24483;SDS011;12643;51.620;7.548;2023-12-14T05:50:40;17.92;;;12.65;;
24483;SDS011;12643;51.620;7.548;2023-12-14T05:53:08;20.63;;;12.77;;
24483;SDS011;12643;51.620;7.548;2023-12-14T05:55:36;20.30;;;11.80;;
24483;SDS011;12643;51.620;7.548;2023-12-14T05:58:05;17.77;;;12.63;;
24483;SDS011;12643;51.620;7.548;2023-12-14T06:00:35;21.80;;;14.48;;
24483;SDS011;12643;51.620;7.548;2023-12-14T06:03:05;21.83;;;14.88;;
24483;SDS011;12643;51.620;7.548;2023-12-14T06:05:34;21.02;;;14.18;;
24483;SDS011;12643;51.620;7.548;2023-12-14T06:08:03;21.30;;;13.18;;
24483;SDS011;12643;51.620;7.548;2023-12-14T06:10:35;23.92;;;15.40;;
24483;SDS011;12643;51.620;7.548;2023-12-14T06:13:03;24.38;;;15.02;;
24483;SDS011;12643;51.620;7.548;2023-12-14T06:15:31;20.17;;;13.68;;
24483;SDS011;12643;51.620;7.548;2023-12-14T06:17:59;21.88;;;14.85;;
24483;SDS011;12643;51.620;7.548;2023-12-14T06:20:27;22.42;;;14.50;;
24483;SDS011;12643;51.620;7.548;2023-12-14T06:22:56;18.25;;;12.23;;
24483;SDS011;12643;51.620;7.548;2023-12-14T06:25:27;19.42;;;12.82;;
24483;SDS011;12643;51.620;7.548;2023-12-14T06:27:58;21.42;;;13.23;;
24483;SDS011;12643;51.620;7.548;2023-12-14T06:30:26;20.90;;;12.93;;
24483;SDS011;12643;51.620;7.548;2023-12-14T06:33:00;21.42;;;13.35;;
24483;SDS011;12643;51.620;7.548;2023-12-14T06:35:28;20.08;;;12.18;;
24483;SDS011;12643;51.620;7.548;2023-12-14T06:37:57;18.38;;;12.63;;
24483;SDS011;12643;51.620;7.548;2023-12-14T06:40:26;23.07;;;14.77;;
24483;SDS011;12643;51.620;7.548;2023-12-14T06:42:54;21.48;;;12.93;;
24483;SDS011;12643;51.620;7.548;2023-12-14T06:45:22;23.60;;;13.88;;
24483;SDS011;12643;51.620;7.548;2023-12-14T06:47:54;21.15;;;13.15;;
24483;SDS011;12643;51.620;7.548;2023-12-14T06:50:22;24.58;;;14.02;;
24483;SDS011;12643;51.620;7.548;2023-12-14T06:52:50;24.48;;;14.52;;
24483;SDS011;12643;51.620;7.548;2023-12-14T06:55:21;21.30;;;14.07;;
24483;SDS011;12643;51.620;7.548;2023-12-14T06:57:48;22.20;;;14.38;;
24483;SDS011;12643;51.620;7.548;2023-12-14T07:00:16;24.65;;;14.30;;
24483;SDS011;12643;51.620;7.548;2023-12-14T07:02:45;23.70;;;15.85;;
24483;SDS011;12643;51.620;7.548;2023-12-14T07:05:13;23.10;;;15.80;;
24483;SDS011;12643;51.620;7.548;2023-12-14T07:07:41;25.52;;;16.33;;
24483;SDS011;12643;51.620;7.548;2023-12-14T07:10:09;20.85;;;14.82;;
24483;SDS011;12643;51.620;7.548;2023-12-14T07:12:39;25.33;;;15.30;;
24483;SDS011;12643;51.620;7.548;2023-12-14T07:15:07;24.48;;;16.52;;
24483;SDS011;12643;51.620;7.548;2023-12-14T07:17:36;24.60;;;15.52;;
24483;SDS011;12643;51.620;7.548;2023-12-14T07:20:05;28.55;;;16.13;;
24483;SDS011;12643;51.620;7.548;2023-12-14T07:22:34;26.80;;;16.10;;
24483;SDS011;12643;51.620;7.548;2023-12-14T07:25:07;27.02;;;16.65;;
24483;SDS011;12643;51.620;7.548;2023-12-14T07:27:41;22.48;;;15.77;;
24483;SDS011;12643;51.620;7.548;2023-12-14T07:30:13;26.50;;;15.20;;
24483;SDS011;12643;51.620;7.548;2023-12-14T07:32:50;27.75;;;17.17;;
24483;SDS011;12643;51.620;7.548;2023-12-14T07:35:21;26.27;;;16.65;;
24483;SDS011;12643;51.620;7.548;2023-12-14T07:37:50;28.65;;;17.42;;
24483;SDS011;12643;51.620;7.548;2023-12-14T07:40:18;27.50;;;16.70;;
24483;SDS011;12643;51.620;7.548;2023-12-14T07:42:48;27.98;;;15.52;;
24483;SDS011;12643;51.620;7.548;2023-12-14T07:45:16;25.45;;;16.02;;
24483;SDS011;12643;51.620;7.548;2023-12-14T07:47:45;25.00;;;15.68;;
24483;SDS011;12643;51.620;7.548;2023-12-14T07:50:13;27.52;;;16.92;;
24483;SDS011;12643;51.620;7.548;2023-12-14T07:52:46;24.52;;;15.85;;
24483;SDS011;12643;51.620;7.548;2023-12-14T07:55:15;28.65;;;17.30;;
24483;SDS011;12643;51.620;7.548;2023-12-14T07:57:43;26.17;;;16.75;;
24483;SDS011;12643;51.620;7.548;2023-12-14T08:00:13;21.95;;;15.18;;
24483;SDS011;12643;51.620;7.548;2023-12-14T08:05:09;23.70;;;14.65;;
24483;SDS011;12643;51.620;7.548;2023-12-14T08:07:37;21.73;;;14.77;;
24483;SDS011;12643;51.620;7.548;2023-12-14T08:10:05;26.02;;;15.90;;
24483;SDS011;12643;51.620;7.548;2023-12-14T08:12:34;25.65;;;16.60;;
24483;SDS011;12643;51.620;7.548;2023-12-14T08:15:04;24.02;;;15.13;;
24483;SDS011;12643;51.620;7.548;2023-12-14T08:17:38;25.52;;;16.33;;
24483;SDS011;12643;51.620;7.548;2023-12-14T08:20:07;25.80;;;17.08;;
24483;SDS011;12643;51.620;7.548;2023-12-14T08:22:37;26.97;;;16.33;;
24483;SDS011;12643;51.620;7.548;2023-12-14T08:25:10;24.50;;;16.30;;
24483;SDS011;12643;51.620;7.548;2023-12-14T08:27:40;24.25;;;15.70;;
24483;SDS011;12643;51.620;7.548;2023-12-14T08:30:08;22.90;;;15.85;;
24483;SDS011;12643;51.620;7.548;2023-12-14T08:32:38;25.30;;;15.75;;
24483;SDS011;12643;51.620;7.548;2023-12-14T08:35:07;28.88;;;16.67;;
24483;SDS011;12643;51.620;7.548;2023-12-14T08:37:43;25.40;;;16.33;;
24483;SDS011;12643;51.620;7.548;2023-12-14T08:40:11;26.67;;;16.95;;
24483;SDS011;12643;51.620;7.548;2023-12-14T08:42:40;23.80;;;15.98;;
24483;SDS011;12643;51.620;7.548;2023-12-14T08:45:08;24.85;;;16.27;;
24483;SDS011;12643;51.620;7.548;2023-12-14T08:47:39;23.48;;;15.82;;
24483;SDS011;12643;51.620;7.548;2023-12-14T08:50:09;23.92;;;16.45;;
24483;SDS011;12643;51.620;7.548;2023-12-14T08:52:38;25.08;;;16.25;;
24483;SDS011;12643;51.620;7.548;2023-12-14T08:55:06;28.10;;;17.38;;
24483;SDS011;12643;51.620;7.548;2023-12-14T08:57:35;25.95;;;16.15;;
24483;SDS011;12643;51.620;7.548;2023-12-14T09:00:05;26.20;;;17.10;;
24483;SDS011;12643;51.620;7.548;2023-12-14T09:02:35;27.05;;;17.70;;
24483;SDS011;12643;51.620;7.548;2023-12-14T09:05:05;31.52;;;18.45;;
24483;SDS011;12643;51.620;7.548;2023-12-14T09:07:36;29.98;;;19.23;;
24483;SDS011;12643;51.620;7.548;2023-12-14T09:10:05;35.45;;;20.63;;
24483;SDS011;12643;51.620;7.548;2023-12-14T09:12:36;34.53;;;21.05;;
24483;SDS011;12643;51.620;7.548;2023-12-14T09:15:07;32.50;;;19.38;;
24483;SDS011;12643;51.620;7.548;2023-12-14T09:17:36;33.08;;;19.73;;
24483;SDS011;12643;51.620;7.548;2023-12-14T09:20:10;31.90;;;19.38;;
24483;SDS011;12643;51.620;7.548;2023-12-14T09:22:39;32.05;;;19.70;;
24483;SDS011;12643;51.620;7.548;2023-12-14T09:25:07;36.45;;;19.42;;
24483;SDS011;12643;51.620;7.548;2023-12-14T09:27:37;32.95;;;19.85;;
24483;SDS011;12643;51.620;7.548;2023-12-14T09:30:05;34.25;;;20.02;;
24483;SDS011;12643;51.620;7.548;2023-12-14T09:32:34;37.83;;;21.88;;
24483;SDS011;12643;51.620;7.548;2023-12-14T09:35:02;34.88;;;21.13;;
24483;SDS011;12643;51.620;7.548;2023-12-14T09:37:33;35.85;;;21.17;;
24483;SDS011;12643;51.620;7.548;2023-12-14T09:40:01;36.80;;;20.90;;
24483;SDS011;12643;51.620;7.548;2023-12-14T09:42:33;35.63;;;22.23;;
24483;SDS011;12643;51.620;7.548;2023-12-14T09:45:06;38.13;;;21.45;;
24483;SDS011;12643;51.620;7.548;2023-12-14T09:47:35;38.72;;;22.25;;
24483;SDS011;12643;51.620;7.548;2023-12-14T09:50:19;38.25;;;22.05;;
24483;SDS011;12643;51.620;7.548;2023-12-14T09:52:49;37.88;;;21.38;;
24483;SDS011;12643;51.620;7.548;2023-12-14T09:55:17;37.35;;;21.65;;
24483;SDS011;12643;51.620;7.548;2023-12-14T09:57:45;37.13;;;20.20;;
24483;SDS011;12643;51.620;7.548;2023-12-14T10:00:13;37.33;;;21.80;;
24483;SDS011;12643;51.620;7.548;2023-12-14T10:03:13;37.25;;;22.05;;
24483;SDS011;12643;51.620;7.548;2023-12-14T10:05:52;36.70;;;21.00;;
24483;SDS011;12643;51.620;7.548;2023-12-14T10:08:22;35.13;;;21.00;;
24483;SDS011;12643;51.620;7.548;2023-12-14T10:10:53;34.13;;;20.13;;
24483;SDS011;12643;51.620;7.548;2023-12-14T10:13:22;37.83;;;21.02;;
24483;SDS011;12643;51.620;7.548;2023-12-14T10:16:04;29.75;;;18.30;;
24483;SDS011;12643;51.620;7.548;2023-12-14T10:21:06;26.77;;;17.45;;
24483;SDS011;12643;51.620;7.548;2023-12-14T10:23:41;32.45;;;18.45;;
24483;SDS011;12643;51.620;7.548;2023-12-14T10:26:12;25.17;;;17.05;;
24483;SDS011;12643;51.620;7.548;2023-12-14T10:28:40;28.30;;;18.35;;
24483;SDS011;12643;51.620;7.548;2023-12-14T10:31:09;24.23;;;16.65;;
24483;SDS011;12643;51.620;7.548;2023-12-14T10:33:37;26.08;;;17.55;;
24483;SDS011;12643;51.620;7.548;2023-12-14T10:36:05;29.67;;;17.75;;
24483;SDS011;12643;51.620;7.548;2023-12-14T10:38:34;27.30;;;17.45;;
24483;SDS011;12643;51.620;7.548;2023-12-14T10:41:06;21.35;;;15.43;;
24483;SDS011;12643;51.620;7.548;2023-12-14T10:43:36;25.35;;;16.58;;
24483;SDS011;12643;51.620;7.548;2023-12-14T10:46:05;24.58;;;17.00;;
24483;SDS011;12643;51.620;7.548;2023-12-14T10:48:34;27.15;;;18.40;;
24483;SDS011;12643;51.620;7.548;2023-12-14T10:51:03;24.98;;;16.17;;
24483;SDS011;12643;51.620;7.548;2023-12-14T10:53:31;27.30;;;17.55;;
24483;SDS011;12643;51.620;7.548;2023-12-14T10:56:01;26.20;;;17.02;;
24483;SDS011;12643;51.620;7.548;2023-12-14T10:58:45;27.80;;;16.45;;
24483;SDS011;12643;51.620;7.548;2023-12-14T11:01:13;26.20;;;17.27;;
24483;SDS011;12643;51.620;7.548;2023-12-14T11:03:42;25.90;;;16.23;;
24483;SDS011;12643;51.620;7.548;2023-12-14T11:08:56;27.42;;;17.38;;
24483;SDS011;12643;51.620;7.548;2023-12-14T11:11:39;22.13;;;15.77;;
24483;SDS011;12643;51.620;7.548;2023-12-14T11:14:10;25.40;;;16.75;;
24483;SDS011;12643;51.620;7.548;2023-12-14T11:16:39;26.13;;;16.40;;
24483;SDS011;12643;51.620;7.548;2023-12-14T11:19:24;26.08;;;17.30;;
24483;SDS011;12643;51.620;7.548;2023-12-14T11:22:03;26.65;;;16.33;;
24483;SDS011;12643;51.620;7.548;2023-12-14T11:24:50;21.75;;;15.20;;
24483;SDS011;12643;51.620;7.548;2023-12-14T11:27:22;24.25;;;15.98;;
24483;SDS011;12643;51.620;7.548;2023-12-14T11:29:54;26.73;;;17.10;;
24483;SDS011;12643;51.620;7.548;2023-12-14T11:32:25;26.35;;;17.10;;
24483;SDS011;12643;51.620;7.548;2023-12-14T11:34:55;26.98;;;17.58;;
24483;SDS011;12643;51.620;7.548;2023-12-14T11:37:23;25.88;;;17.92;;
24483;SDS011;12643;51.620;7.548;2023-12-14T11:39:53;25.45;;;17.30;;
24483;SDS011;12643;51.620;7.548;2023-12-14T11:42:23;24.77;;;17.60;;
24483;SDS011;12643;51.620;7.548;2023-12-14T11:44:51;25.00;;;16.83;;
24483;SDS011;12643;51.620;7.548;2023-12-14T11:47:21;25.08;;;18.00;;
24483;SDS011;12643;51.620;7.548;2023-12-14T11:49:49;25.73;;;16.88;;
24483;SDS011;12643;51.620;7.548;2023-12-14T11:52:18;26.40;;;17.52;;
24483;SDS011;12643;51.620;7.548;2023-12-14T11:54:46;28.10;;;17.05;;
24483;SDS011;12643;51.620;7.548;2023-12-14T11:57:15;28.92;;;17.48;;
24483;SDS011;12643;51.620;7.548;2023-12-14T11:59:46;26.42;;;17.90;;
24483;SDS011;12643;51.620;7.548;2023-12-14T12:02:22;26.85;;;18.13;;
24483;SDS011;12643;51.620;7.548;2023-12-14T12:04:51;29.25;;;18.60;;
24483;SDS011;12643;51.620;7.548;2023-12-14T12:07:19;35.30;;;19.73;;
24483;SDS011;12643;51.620;7.548;2023-12-14T12:09:48;26.42;;;17.30;;
24483;SDS011;12643;51.620;7.548;2023-12-14T12:12:15;31.13;;;18.65;;
24483;SDS011;12643;51.620;7.548;2023-12-14T12:14:47;29.38;;;18.80;;
24483;SDS011;12643;51.620;7.548;2023-12-14T12:17:19;32.83;;;19.00;;
24483;SDS011;12643;51.620;7.548;2023-12-14T12:19:47;28.08;;;18.88;;
24483;SDS011;12643;51.620;7.548;2023-12-14T12:22:15;26.58;;;17.35;;
24483;SDS011;12643;51.620;7.548;2023-12-14T12:24:45;30.70;;;17.85;;
24483;SDS011;12643;51.620;7.548;2023-12-14T12:27:16;30.73;;;18.92;;
24483;SDS011;12643;51.620;7.548;2023-12-14T12:29:45;30.80;;;19.60;;
24483;SDS011;12643;51.620;7.548;2023-12-14T12:34:43;31.15;;;18.40;;
24483;SDS011;12643;51.620;7.548;2023-12-14T12:37:18;30.52;;;18.83;;
24483;SDS011;12643;51.620;7.548;2023-12-14T12:39:46;28.15;;;18.42;;
24483;SDS011;12643;51.620;7.548;2023-12-14T12:42:14;32.17;;;17.85;;
24483;SDS011;12643;51.620;7.548;2023-12-14T12:44:42;29.98;;;17.60;;
24483;SDS011;12643;51.620;7.548;2023-12-14T12:47:13;32.72;;;18.90;;
24483;SDS011;12643;51.620;7.548;2023-12-14T12:49:41;29.17;;;17.90;;
24483;SDS011;12643;51.620;7.548;2023-12-14T12:52:09;34.42;;;17.52;;
24483;SDS011;12643;51.620;7.548;2023-12-14T12:54:37;28.58;;;17.95;;
24483;SDS011;12643;51.620;7.548;2023-12-14T12:57:05;28.25;;;17.48;;
24483;SDS011;12643;51.620;7.548;2023-12-14T12:59:34;27.73;;;17.50;;
24483;SDS011;12643;51.620;7.548;2023-12-14T13:02:02;26.35;;;16.83;;
24483;SDS011;12643;51.620;7.548;2023-12-14T13:04:31;26.40;;;16.02;;
24483;SDS011;12643;51.620;7.548;2023-12-14T13:06:59;32.78;;;18.10;;
24483;SDS011;12643;51.620;7.548;2023-12-14T13:09:29;31.63;;;17.60;;
24483;SDS011;12643;51.620;7.548;2023-12-14T13:11:57;28.23;;;16.55;;
24483;SDS011;12643;51.620;7.548;2023-12-14T13:14:25;29.13;;;17.15;;
24483;SDS011;12643;51.620;7.548;2023-12-14T13:16:53;28.08;;;17.23;;
24483;SDS011;12643;51.620;7.548;2023-12-14T13:19:21;29.58;;;17.75;;
24483;SDS011;12643;51.620;7.548;2023-12-14T13:21:52;30.45;;;17.35;;
24483;SDS011;12643;51.620;7.548;2023-12-14T13:24:23;31.13;;;17.98;;
24483;SDS011;12643;51.620;7.548;2023-12-14T13:26:50;28.42;;;17.33;;
24483;SDS011;12643;51.620;7.548;2023-12-14T13:29:18;33.53;;;19.00;;
24483;SDS011;12643;51.620;7.548;2023-12-14T13:31:47;29.83;;;18.38;;
24483;SDS011;12643;51.620;7.548;2023-12-14T13:34:15;31.80;;;18.40;;
24483;SDS011;12643;51.620;7.548;2023-12-14T13:36:43;29.35;;;18.40;;
24483;SDS011;12643;51.620;7.548;2023-12-14T13:39:12;29.60;;;17.50;;
24483;SDS011;12643;51.620;7.548;2023-12-14T13:41:40;28.48;;;17.33;;
24483;SDS011;12643;51.620;7.548;2023-12-14T13:44:08;27.85;;;17.45;;
24483;SDS011;12643;51.620;7.548;2023-12-14T13:46:37;32.03;;;18.83;;
24483;SDS011;12643;51.620;7.548;2023-12-14T13:49:04;29.17;;;18.30;;
24483;SDS011;12643;51.620;7.548;2023-12-14T13:51:32;30.48;;;19.05;;
24483;SDS011;12643;51.620;7.548;2023-12-14T13:54:00;30.33;;;19.02;;
24483;SDS011;12643;51.620;7.548;2023-12-14T13:56:29;30.30;;;19.25;;
24483;SDS011;12643;51.620;7.548;2023-12-14T13:58:57;29.40;;;18.58;;
24483;SDS011;12643;51.620;7.548;2023-12-14T14:01:25;31.08;;;19.30;;
24483;SDS011;12643;51.620;7.548;2023-12-14T14:03:53;29.63;;;18.95;;
24483;SDS011;12643;51.620;7.548;2023-12-14T14:06:22;28.83;;;17.63;;
24483;SDS011;12643;51.620;7.548;2023-12-14T14:08:55;29.80;;;17.95;;
24483;SDS011;12643;51.620;7.548;2023-12-14T14:11:23;30.88;;;18.50;;
24483;SDS011;12643;51.620;7.548;2023-12-14T14:13:52;31.77;;;19.50;;
24483;SDS011;12643;51.620;7.548;2023-12-14T14:16:20;29.77;;;18.30;;
24483;SDS011;12643;51.620;7.548;2023-12-14T14:18:48;29.98;;;18.70;;
24483;SDS011;12643;51.620;7.548;2023-12-14T14:21:16;29.05;;;18.73;;
24483;SDS011;12643;51.620;7.548;2023-12-14T14:23:43;30.98;;;19.73;;
24483;SDS011;12643;51.620;7.548;2023-12-14T14:26:11;27.45;;;18.30;;
24483;SDS011;12643;51.620;7.548;2023-12-14T14:28:40;31.08;;;19.85;;
24483;SDS011;12643;51.620;7.548;2023-12-14T14:31:10;31.50;;;18.77;;
24483;SDS011;12643;51.620;7.548;2023-12-14T14:33:37;32.25;;;21.35;;
24483;SDS011;12643;51.620;7.548;2023-12-14T14:36:06;32.10;;;21.17;;
24483;SDS011;12643;51.620;7.548;2023-12-14T14:38:34;31.75;;;20.02;;
24483;SDS011;12643;51.620;7.548;2023-12-14T14:41:01;31.80;;;20.63;;
24483;SDS011;12643;51.620;7.548;2023-12-14T14:43:29;29.10;;;19.40;;
24483;SDS011;12643;51.620;7.548;2023-12-14T14:45:57;30.08;;;20.10;;
24483;SDS011;12643;51.620;7.548;2023-12-14T14:48:27;32.15;;;21.50;;